createdAt,value
2023-03-02T00:00:35.282Z,83.10
2023-03-02T00:01:44.713Z,82.70
2023-03-02T00:02:47.427Z,82.70
2023-03-02T00:03:52.791Z,83.20
2023-03-02T00:04:58.726Z,82.70
2023-03-02T00:06:03.326Z,83.20
2023-03-02T00:07:08.939Z,83.60
2023-03-02T00:08:12.534Z,83.90
2023-03-02T00:09:15.425Z,83.70
2023-03-02T00:10:19.409Z,83.90
2023-03-02T00:11:22.400Z,84.20
2023-03-02T00:12:28.153Z,84.00
2023-03-02T00:13:32.534Z,84.50
2023-03-02T00:14:38.028Z,84.60
2023-03-02T00:15:41.158Z,84.40
2023-03-02T00:16:44.749Z,84.50
2023-03-02T00:17:47.425Z,84.70
2023-03-02T00:18:52.479Z,84.70
2023-03-02T00:19:55.119Z,84.40
2023-03-02T00:20:58.682Z,84.30
2023-03-02T00:22:01.359Z,84.80
2023-03-02T00:23:05.109Z,84.10
2023-03-02T00:24:08.417Z,84.80
2023-03-02T00:25:13.319Z,84.70
2023-03-02T00:26:16.053Z,85.00
2023-03-02T00:27:19.960Z,85.00
2023-03-02T00:28:22.724Z,85.60
2023-03-02T00:29:26.764Z,85.90
2023-03-02T00:30:29.402Z,86.00
2023-03-02T00:31:33.465Z,86.20
2023-03-02T00:32:36.219Z,86.10
2023-03-02T00:33:39.950Z,86.50
2023-03-02T00:34:44.087Z,86.80
2023-03-02T00:35:48.109Z,86.90
2023-03-02T00:36:50.860Z,86.80
2023-03-02T00:37:54.637Z,86.50
2023-03-02T00:38:57.960Z,86.40
2023-03-02T00:40:01.918Z,86.00
2023-03-02T00:41:05.102Z,86.20
2023-03-02T00:42:08.669Z,87.10
2023-03-02T00:43:11.565Z,87.20
2023-03-02T00:44:17.727Z,87.30
2023-03-02T00:45:20.376Z,86.60
2023-03-02T00:46:26.071Z,86.00
2023-03-02T00:47:29.265Z,86.20
2023-03-02T00:48:32.739Z,87.20
2023-03-02T00:49:36.579Z,87.10
2023-03-02T00:50:42.064Z,86.90
2023-03-02T00:52:02.535Z,87.50
2023-03-02T00:53:07.256Z,88.10
2023-03-02T00:54:10.316Z,88.30
2023-03-02T00:55:14.004Z,88.20
2023-03-02T00:56:16.610Z,88.30
2023-03-02T00:57:24.922Z,88.50
2023-03-02T00:58:29.733Z,88.70
2023-03-02T00:59:34.120Z,88.80
2023-03-02T01:00:52.100Z,88.40
2023-03-02T01:01:58.425Z,88.10
2023-03-02T01:03:02.633Z,88.40
2023-03-02T01:04:06.781Z,89.00
2023-03-02T01:05:10.079Z,88.80
2023-03-02T01:06:20.712Z,88.90
2023-03-02T01:07:25.029Z,88.80
2023-03-02T01:08:29.130Z,88.80
2023-03-02T01:09:33.547Z,88.80
2023-03-02T01:10:37.664Z,88.40
2023-03-02T01:11:40.217Z,88.80
2023-03-02T01:12:44.392Z,88.80
2023-03-02T01:13:47.715Z,88.90
2023-03-02T01:14:51.847Z,89.20
2023-03-02T01:16:01.600Z,89.00
2023-03-02T01:17:05.672Z,89.20
2023-03-02T01:18:08.313Z,89.10
2023-03-02T01:19:12.154Z,89.40
2023-03-02T01:20:15.761Z,89.60
2023-03-02T01:21:21.049Z,89.60
2023-03-02T01:22:24.271Z,89.30
2023-03-02T01:23:27.953Z,89.60
2023-03-02T01:24:30.681Z,89.40
2023-03-02T01:25:34.223Z,89.30
2023-03-02T01:26:37.715Z,89.60
2023-03-02T01:27:41.323Z,89.80
2023-03-02T01:28:43.876Z,89.90
2023-03-02T01:29:48.181Z,90.00
2023-03-02T01:30:50.791Z,90.10
2023-03-02T01:31:54.409Z,89.60
2023-03-02T01:32:56.991Z,89.30
2023-03-02T01:34:00.668Z,89.70
2023-03-02T01:35:03.466Z,89.80
2023-03-02T01:36:08.691Z,89.80
2023-03-02T01:37:12.675Z,89.70
2023-03-02T01:38:16.406Z,89.50
2023-03-02T01:39:22.307Z,89.60
2023-03-02T01:40:26.925Z,89.50
2023-03-02T01:41:29.564Z,89.90
2023-03-02T01:42:38.535Z,89.90
2023-03-02T01:43:41.218Z,89.80
2023-03-02T01:44:48.189Z,90.00
2023-03-02T01:45:55.057Z,90.00
2023-03-02T01:47:29.504Z,89.90
2023-03-02T01:48:46.542Z,90.00
2023-03-02T01:49:58.231Z,90.10
2023-03-02T01:51:04.333Z,90.30
2023-03-02T01:52:08.042Z,90.30
2023-03-02T01:53:13.585Z,90.10
2023-03-02T01:54:24.135Z,89.90
2023-03-02T01:55:35.395Z,90.20
2023-03-02T01:56:42.101Z,90.30
2023-03-02T01:57:49.946Z,90.00
2023-03-02T01:59:02.189Z,90.10
2023-03-02T02:00:10.403Z,90.30
2023-03-02T02:01:17.502Z,90.10
2023-03-02T02:02:20.501Z,90.40
2023-03-02T02:03:30.222Z,90.50
2023-03-02T02:04:37.516Z,90.40
2023-03-02T02:05:45.011Z,90.40
2023-03-02T02:06:52.589Z,90.60
2023-03-02T02:07:56.725Z,90.80
2023-03-02T02:09:09.712Z,90.90
2023-03-02T02:10:14.712Z,90.80
2023-03-02T02:11:17.399Z,90.60
2023-03-02T02:12:24.510Z,90.60
2023-03-02T02:13:27.514Z,90.70
2023-03-02T02:14:31.340Z,90.60
2023-03-02T02:15:34.052Z,90.50
2023-03-02T02:16:39.074Z,90.90
2023-03-02T02:17:42.468Z,90.80
2023-03-02T02:18:46.540Z,90.80
2023-03-02T02:20:05.967Z,90.60
2023-03-02T02:21:10.408Z,90.80
2023-03-02T02:22:22.686Z,90.60
2023-03-02T02:23:35.133Z,90.60
2023-03-02T02:24:44.636Z,91.30
2023-03-02T02:26:11.431Z,90.90
2023-03-02T02:27:15.030Z,91.50
2023-03-02T02:28:24.173Z,91.40
2023-03-02T02:29:33.100Z,91.30
2023-03-02T02:30:37.773Z,90.90
2023-03-02T02:31:48.300Z,91.40
2023-03-02T02:32:54.054Z,91.40
2023-03-02T02:34:05.390Z,91.60
2023-03-02T02:35:15.607Z,91.30
2023-03-02T02:36:25.689Z,91.30
2023-03-02T02:37:33.652Z,91.30
2023-03-02T02:38:39.128Z,91.50
2023-03-02T02:39:46.602Z,91.20
2023-03-02T02:40:55.265Z,91.70
2023-03-02T02:42:09.256Z,91.80
2023-03-02T02:43:15.034Z,91.70
2023-03-02T02:44:20.294Z,91.60
2023-03-02T02:45:26.085Z,91.50
2023-03-02T02:46:30.811Z,91.50
2023-03-02T02:47:34.108Z,91.50
2023-03-02T02:48:37.699Z,91.70
2023-03-02T02:49:41.902Z,91.70
2023-03-02T02:50:47.395Z,91.70
2023-03-02T02:51:50.084Z,91.50
2023-03-02T02:53:03.538Z,91.50
2023-03-02T02:54:06.121Z,91.60
2023-03-02T02:55:20.537Z,91.70
2023-03-02T02:56:23.930Z,91.50
2023-03-02T02:57:31.431Z,91.50
2023-03-02T02:58:39.832Z,91.50
2023-03-02T02:59:47.670Z,91.60
2023-03-02T03:00:50.297Z,91.80
2023-03-02T03:01:55.121Z,91.60
2023-03-02T03:03:03.615Z,91.60
2023-03-02T03:04:08.473Z,91.70
2023-03-02T03:05:15.123Z,91.50
2023-03-02T03:06:25.783Z,91.40
2023-03-02T03:07:29.126Z,91.50
2023-03-02T03:08:59.313Z,91.50
2023-03-02T03:10:16.933Z,91.50
2023-03-02T03:11:23.529Z,91.70
2023-03-02T03:12:32.292Z,91.80
2023-03-02T03:13:35.212Z,91.70
2023-03-02T03:14:42.888Z,91.90
2023-03-02T03:15:47.918Z,92.00
2023-03-02T03:16:54.229Z,92.00
2023-03-02T03:17:59.231Z,92.10
2023-03-02T03:19:13.250Z,92.10
2023-03-02T03:20:18.499Z,91.80
2023-03-02T03:21:40.500Z,91.90
2023-03-02T03:22:45.192Z,91.80
2023-03-02T03:23:50.216Z,91.80
2023-03-02T03:24:55.883Z,92.10
2023-03-02T03:25:58.598Z,92.00
2023-03-02T03:27:05.494Z,92.00
2023-03-02T03:28:11.252Z,92.20
2023-03-02T03:29:16.710Z,92.20
2023-03-02T03:30:19.640Z,92.00
2023-03-02T03:31:24.283Z,92.10
2023-03-02T03:32:28.269Z,92.50
2023-03-02T03:33:31.584Z,92.50
2023-03-02T03:34:40.862Z,92.30
2023-03-02T03:35:49.818Z,92.30
2023-03-02T03:36:53.838Z,92.30
2023-03-02T03:37:57.000Z,92.40
2023-03-02T03:39:01.421Z,92.40
2023-03-02T03:40:09.371Z,92.40
2023-03-02T03:41:14.516Z,92.40
2023-03-02T03:42:17.101Z,92.50
2023-03-02T03:43:22.603Z,92.50
2023-03-02T03:44:29.309Z,92.50
2023-03-02T03:45:33.029Z,92.20
2023-03-02T03:46:36.161Z,92.30
2023-03-02T03:47:40.064Z,92.40
2023-03-02T03:48:44.221Z,92.30
2023-03-02T03:49:47.803Z,92.30
2023-03-02T03:50:50.753Z,92.30
2023-03-02T03:51:54.367Z,92.40
2023-03-02T03:52:57.064Z,92.60
2023-03-02T03:54:05.315Z,92.50
2023-03-02T03:55:12.511Z,92.30
2023-03-02T03:56:16.694Z,92.20
2023-03-02T03:57:19.343Z,92.30
2023-03-02T03:58:25.294Z,92.50
2023-03-02T03:59:29.338Z,92.60
2023-03-02T04:00:36.675Z,92.00
2023-03-02T04:01:46.771Z,92.40
2023-03-02T04:02:51.460Z,92.60
2023-03-02T04:03:54.804Z,92.60
2023-03-02T04:05:06.632Z,92.60
2023-03-02T04:06:18.950Z,92.70
2023-03-02T04:07:23.126Z,92.80
2023-03-02T04:08:25.754Z,92.50
2023-03-02T04:09:32.263Z,92.40
2023-03-02T04:10:35.325Z,92.30
2023-03-02T04:11:41.753Z,92.20
2023-03-02T04:12:44.530Z,92.30
2023-03-02T04:13:50.090Z,92.60
2023-03-02T04:14:52.781Z,92.50
2023-03-02T04:15:56.483Z,92.60
2023-03-02T04:16:59.291Z,92.30
2023-03-02T04:18:02.948Z,92.30
2023-03-02T04:19:09.685Z,92.60
2023-03-02T04:20:16.962Z,92.80
2023-03-02T04:21:22.818Z,92.60
2023-03-02T04:22:26.802Z,92.30
2023-03-02T04:23:29.500Z,92.40
2023-03-02T04:24:33.736Z,92.60
2023-03-02T04:25:38.593Z,92.80
2023-03-02T04:26:51.741Z,93.00
2023-03-02T04:27:55.117Z,93.20
2023-03-02T04:29:02.762Z,93.00
2023-03-02T04:30:08.586Z,92.80
2023-03-02T04:31:12.412Z,92.90
2023-03-02T04:32:15.439Z,93.00
2023-03-02T04:33:22.382Z,92.80
2023-03-02T04:34:25.603Z,92.80
2023-03-02T04:35:29.734Z,92.90
2023-03-02T04:36:34.405Z,92.80
2023-03-02T04:37:40.701Z,92.70
2023-03-02T04:38:43.621Z,92.80
2023-03-02T04:39:51.209Z,92.60
2023-03-02T04:40:53.619Z,92.50
2023-03-02T04:41:57.485Z,92.80
2023-03-02T04:42:59.999Z,92.90
2023-03-02T04:44:05.178Z,92.90
2023-03-02T04:45:09.121Z,92.80
2023-03-02T04:46:16.048Z,92.90
2023-03-02T04:47:18.751Z,92.90
2023-03-02T04:48:23.671Z,92.90
2023-03-02T04:49:26.214Z,92.70
2023-03-02T04:50:29.670Z,93.00
2023-03-02T04:51:37.215Z,93.20
2023-03-02T04:52:41.063Z,93.10
2023-03-02T04:53:43.749Z,93.10
2023-03-02T04:54:47.425Z,93.00
2023-03-02T04:55:50.036Z,93.20
2023-03-02T04:56:54.596Z,93.30
2023-03-02T04:57:57.095Z,93.20
2023-03-02T04:59:01.172Z,93.20
2023-03-02T05:00:09.888Z,93.20
2023-03-02T05:01:15.717Z,93.10
2023-03-02T05:02:18.557Z,93.30
2023-03-02T05:03:22.308Z,93.50
2023-03-02T05:04:25.792Z,93.40
2023-03-02T05:05:31.323Z,93.50
2023-03-02T05:06:34.175Z,93.60
2023-03-02T05:07:38.089Z,93.70
2023-03-02T05:08:40.807Z,93.60
2023-03-02T05:09:44.526Z,93.70
2023-03-02T05:10:47.076Z,93.60
2023-03-02T05:11:50.729Z,93.60
2023-03-02T05:12:58.051Z,93.60
2023-03-02T05:14:05.366Z,93.60
2023-03-02T05:15:10.553Z,93.60
2023-03-02T05:16:14.070Z,93.60
2023-03-02T05:17:16.641Z,93.70
2023-03-02T05:18:21.557Z,93.60
2023-03-02T05:19:24.512Z,93.40
2023-03-02T05:20:30.470Z,93.60
2023-03-02T05:21:34.412Z,93.50
2023-03-02T05:22:38.348Z,93.50
2023-03-02T05:23:42.140Z,93.40
2023-03-02T05:24:44.850Z,93.60
2023-03-02T05:25:48.338Z,93.50
2023-03-02T05:26:50.997Z,93.70
2023-03-02T05:27:54.716Z,93.70
2023-03-02T05:28:57.343Z,93.80
2023-03-02T05:30:00.763Z,93.50
2023-03-02T05:31:05.359Z,93.70
2023-03-02T05:32:10.468Z,93.70
2023-03-02T05:33:13.167Z,93.30
2023-03-02T05:34:18.414Z,93.50
2023-03-02T05:35:22.324Z,93.30
2023-03-02T05:36:25.969Z,93.00
2023-03-02T05:37:28.617Z,93.30
2023-03-02T05:38:32.680Z,93.60
2023-03-02T05:39:35.240Z,93.70
2023-03-02T05:40:39.001Z,93.80
2023-03-02T05:41:42.471Z,93.40
2023-03-02T05:42:48.720Z,93.20
2023-03-02T05:43:51.813Z,93.60
2023-03-02T05:44:55.396Z,93.80
2023-03-02T05:46:00.634Z,94.00
2023-03-02T05:47:06.027Z,93.60
2023-03-02T05:48:09.084Z,93.70
2023-03-02T05:49:12.580Z,93.90
2023-03-02T05:50:15.508Z,93.60
2023-03-02T05:51:19.096Z,93.80
2023-03-02T05:52:21.782Z,93.80
2023-03-02T05:53:25.553Z,93.70
2023-03-02T05:54:28.279Z,93.90
2023-03-02T05:55:36.863Z,93.90
2023-03-02T05:56:40.540Z,94.00
2023-03-02T05:57:43.471Z,94.00
2023-03-02T05:58:46.977Z,94.10
2023-03-02T05:59:51.002Z,94.20
2023-03-02T06:00:54.694Z,94.00
2023-03-02T06:01:59.308Z,94.00
2023-03-02T06:03:04.374Z,93.80
2023-03-02T06:04:07.037Z,93.90
2023-03-02T06:05:14.538Z,93.90
2023-03-02T06:06:18.488Z,93.90
2023-03-02T06:07:20.922Z,94.00
2023-03-02T06:08:24.585Z,93.80
2023-03-02T06:09:27.284Z,93.70
2023-03-02T06:10:31.085Z,93.70
2023-03-02T06:11:33.771Z,93.70
2023-03-02T06:12:37.861Z,93.90
2023-03-02T06:13:40.891Z,93.80
2023-03-02T06:14:45.181Z,93.80
2023-03-02T06:15:49.003Z,93.90
2023-03-02T06:16:52.811Z,94.00
2023-03-02T06:17:55.663Z,94.20
2023-03-02T06:19:00.990Z,94.20
2023-03-02T06:20:06.248Z,94.20
2023-03-02T06:21:10.531Z,94.10
2023-03-02T06:22:13.079Z,94.20
2023-03-02T06:23:17.072Z,94.30
2023-03-02T06:24:19.770Z,94.20
2023-03-02T06:25:25.917Z,94.30
2023-03-02T06:26:28.549Z,94.20
2023-03-02T06:27:32.359Z,94.10
2023-03-02T06:28:49.802Z,94.10
2023-03-02T06:29:55.518Z,94.10
2023-03-02T06:31:00.465Z,94.00
2023-03-02T06:32:04.271Z,93.70
2023-03-02T06:33:06.911Z,94.00
2023-03-02T06:34:12.034Z,94.00
2023-03-02T06:35:14.821Z,94.00
2023-03-02T06:36:18.604Z,93.80
2023-03-02T06:37:21.339Z,94.00
2023-03-02T06:38:25.453Z,93.90
2023-03-02T06:39:28.171Z,94.00
2023-03-02T06:40:32.341Z,94.10
2023-03-02T06:41:35.143Z,94.00
2023-03-02T06:42:40.359Z,94.10
2023-03-02T06:43:43.513Z,94.10
2023-03-02T06:44:47.188Z,94.00
2023-03-02T06:45:51.058Z,94.00
2023-03-02T06:46:54.696Z,93.90
2023-03-02T06:47:57.366Z,93.70
2023-03-02T06:49:01.257Z,93.70
2023-03-02T06:50:07.421Z,93.70
2023-03-02T06:51:12.681Z,93.80
2023-03-02T06:52:15.303Z,93.90
2023-03-02T06:53:20.497Z,94.00
2023-03-02T06:54:24.145Z,94.00
2023-03-02T06:55:28.490Z,93.90
2023-03-02T06:56:35.618Z,93.90
2023-03-02T06:57:38.724Z,93.80
2023-03-02T06:58:42.204Z,93.80
2023-03-02T06:59:44.944Z,93.70
2023-03-02T07:00:48.843Z,93.80
2023-03-02T07:01:51.875Z,93.90
2023-03-02T07:02:56.595Z,93.80
2023-03-02T07:03:59.305Z,93.90
2023-03-02T07:05:03.364Z,93.90
2023-03-02T07:06:08.791Z,93.70
2023-03-02T07:07:11.354Z,93.70
2023-03-02T07:08:15.183Z,93.60
2023-03-02T07:09:17.852Z,93.60
2023-03-02T07:10:21.928Z,93.40
2023-03-02T07:11:25.166Z,93.20
2023-03-02T07:12:29.114Z,93.00
2023-03-02T07:13:31.930Z,92.60
2023-03-02T07:14:37.407Z,92.30
2023-03-02T07:15:41.566Z,91.90
2023-03-02T07:16:44.265Z,91.40
2023-03-02T07:17:48.443Z,90.90
2023-03-02T07:18:51.121Z,90.40
2023-03-02T07:19:55.013Z,89.50
2023-03-02T07:20:57.811Z,89.00
2023-03-02T07:22:02.947Z,88.60
2023-03-02T07:23:06.031Z,88.10
2023-03-02T07:24:10.108Z,87.40
2023-03-02T07:25:13.631Z,86.80
2023-03-02T07:26:17.274Z,86.20
2023-03-02T07:27:19.970Z,85.70
2023-03-02T07:28:24.416Z,85.10
2023-03-02T07:29:27.506Z,84.70
2023-03-02T07:30:31.414Z,84.00
2023-03-02T07:31:34.413Z,83.50
2023-03-02T07:32:38.211Z,83.00
2023-03-02T07:33:42.464Z,82.50
2023-03-02T07:34:45.084Z,82.30
2023-03-02T07:35:48.890Z,81.70
2023-03-02T07:36:51.949Z,81.30
2023-03-02T07:37:57.125Z,81.00
2023-03-02T07:38:59.770Z,80.70
2023-03-02T07:40:04.010Z,80.30
2023-03-02T07:41:11.261Z,80.10
2023-03-02T07:42:13.820Z,79.70
2023-03-02T07:43:19.487Z,79.20
2023-03-02T07:44:22.139Z,78.40
2023-03-02T07:45:26.744Z,77.90
2023-03-02T07:46:29.667Z,76.70
2023-03-02T07:47:33.928Z,76.30
2023-03-02T07:48:36.605Z,75.80
2023-03-02T07:49:40.731Z,75.20
2023-03-02T07:50:43.351Z,74.50
2023-03-02T07:51:47.071Z,74.60
2023-03-02T07:52:50.772Z,74.40
2023-03-02T07:53:54.850Z,73.90
2023-03-02T07:54:58.586Z,73.70
2023-03-02T07:56:05.667Z,73.20
2023-03-02T07:57:09.522Z,72.30
2023-03-02T07:58:12.288Z,71.10
2023-03-02T07:59:16.337Z,71.00
2023-03-02T08:00:20.995Z,70.40
2023-03-02T08:01:24.988Z,69.80
2023-03-02T08:02:28.302Z,69.40
2023-03-02T08:03:32.200Z,68.90
2023-03-02T08:04:37.098Z,68.30
2023-03-02T08:05:39.782Z,67.90
2023-03-02T08:06:43.498Z,67.60
2023-03-02T08:07:47.156Z,67.60
2023-03-02T08:08:51.005Z,67.00
2023-03-02T08:09:55.094Z,66.60
2023-03-02T08:11:06.746Z,66.50
2023-03-02T08:12:10.366Z,65.70
2023-03-02T08:13:13.035Z,65.80
2023-03-02T08:14:16.716Z,65.10
2023-03-02T08:15:19.564Z,64.80
2023-03-02T08:16:25.682Z,63.10
2023-03-02T08:17:29.443Z,63.00
2023-03-02T08:18:32.612Z,62.70
2023-03-02T08:19:36.121Z,62.80
2023-03-02T08:20:39.305Z,61.00
2023-03-02T08:21:44.007Z,61.40
2023-03-02T08:22:46.636Z,60.50
2023-03-02T08:23:50.959Z,60.30
2023-03-02T08:24:55.099Z,60.20
2023-03-02T08:25:58.758Z,60.30
2023-03-02T08:27:02.537Z,59.60
2023-03-02T08:28:06.342Z,58.70
2023-03-02T08:29:09.932Z,58.20
2023-03-02T08:30:14.053Z,58.00
2023-03-02T08:31:18.247Z,58.10
2023-03-02T08:32:22.299Z,57.20
2023-03-02T08:33:26.361Z,57.10
2023-03-02T08:34:30.086Z,56.80
2023-03-02T08:35:33.857Z,55.30
2023-03-02T08:36:36.369Z,56.10
2023-03-02T08:37:42.955Z,55.50
2023-03-02T08:38:46.872Z,55.70
2023-03-02T08:39:51.773Z,55.20
2023-03-02T08:40:56.287Z,55.10
2023-03-02T08:42:00.323Z,54.70
2023-03-02T08:43:03.174Z,54.10
2023-03-02T08:44:07.581Z,53.50
2023-03-02T08:45:10.964Z,53.20
2023-03-02T08:46:17.856Z,52.70
2023-03-02T08:47:31.045Z,52.90
2023-03-02T08:48:34.001Z,52.70
2023-03-02T08:49:38.145Z,53.50
2023-03-02T08:50:40.913Z,52.50
2023-03-02T08:51:46.826Z,52.40
2023-03-02T08:52:49.745Z,52.10
2023-03-02T08:53:56.736Z,52.10
2023-03-02T08:55:03.241Z,52.00
2023-03-02T08:56:19.717Z,52.10
2023-03-02T08:57:23.352Z,51.50
2023-03-02T08:58:26.316Z,51.50
2023-03-02T08:59:30.124Z,51.20
2023-03-02T09:00:32.824Z,50.70
2023-03-02T09:01:38.825Z,50.60
2023-03-02T09:02:41.873Z,50.30
2023-03-02T09:03:46.077Z,48.90
2023-03-02T09:04:49.639Z,49.00
2023-03-02T09:05:54.794Z,48.80
2023-03-02T09:06:58.632Z,48.80
2023-03-02T09:08:05.091Z,48.60
2023-03-02T09:09:09.132Z,48.30
2023-03-02T09:10:13.066Z,48.00
2023-03-02T09:11:21.012Z,48.30
2023-03-02T09:12:23.744Z,48.70
2023-03-02T09:13:27.422Z,47.10
2023-03-02T09:14:31.491Z,46.90
2023-03-02T09:15:34.234Z,46.80
2023-03-02T09:16:39.158Z,47.10
2023-03-02T09:17:42.982Z,47.40
2023-03-02T09:18:47.195Z,47.10
2023-03-02T09:19:51.140Z,47.10
2023-03-02T09:20:54.163Z,47.10
2023-03-02T09:21:57.678Z,46.50
2023-03-02T09:23:00.294Z,46.20
2023-03-02T09:24:03.890Z,46.70
2023-03-02T09:25:07.413Z,47.10
2023-03-02T09:26:11.136Z,46.90
2023-03-02T09:27:16.202Z,47.30
2023-03-02T09:28:20.295Z,45.60
2023-03-02T09:29:24.207Z,45.70
2023-03-02T09:30:27.022Z,45.50
2023-03-02T09:31:31.028Z,45.50
2023-03-02T09:32:34.009Z,45.30
2023-03-02T09:33:37.994Z,46.00
2023-03-02T09:34:41.766Z,45.30
2023-03-02T09:35:45.745Z,46.00
2023-03-02T09:36:49.513Z,45.50
2023-03-02T09:37:52.275Z,45.50
2023-03-02T09:38:56.388Z,45.60
2023-03-02T09:39:59.969Z,45.70
2023-03-02T09:41:33.228Z,45.50
2023-03-02T09:43:09.632Z,45.30
2023-03-02T09:44:36.742Z,45.10
2023-03-02T09:46:05.503Z,45.20
2023-03-02T09:47:33.423Z,44.50
2023-03-02T09:48:45.904Z,44.70
2023-03-02T09:50:00.879Z,45.00
2023-03-02T09:51:22.708Z,44.80
2023-03-02T09:52:34.587Z,44.50
2023-03-02T09:53:47.855Z,45.00
2023-03-02T09:54:53.234Z,44.70
2023-03-02T09:56:00.407Z,44.60
2023-03-02T09:57:04.738Z,44.40
2023-03-02T09:58:18.835Z,44.40
2023-03-02T09:59:27.582Z,43.90
2023-03-02T10:00:32.889Z,44.30
2023-03-02T10:01:43.853Z,43.70
2023-03-02T10:02:49.542Z,43.90
2023-03-02T10:03:59.311Z,44.20
2023-03-02T10:05:08.581Z,43.90
2023-03-02T10:06:12.509Z,44.10
2023-03-02T10:07:17.967Z,44.40
2023-03-02T10:08:24.650Z,44.30
2023-03-02T10:09:28.531Z,43.90
2023-03-02T10:10:41.695Z,44.20
2023-03-02T10:12:04.316Z,44.10
2023-03-02T10:13:21.329Z,43.00
2023-03-02T10:14:31.870Z,42.60
2023-03-02T10:15:41.594Z,42.80
2023-03-02T10:16:53.867Z,43.00
2023-03-02T10:18:04.990Z,42.60
2023-03-02T10:19:16.336Z,42.40
2023-03-02T10:20:34.216Z,42.70
2023-03-02T10:21:42.877Z,42.60
2023-03-02T10:22:53.102Z,42.70
2023-03-02T10:24:04.722Z,42.60
2023-03-02T10:25:22.761Z,41.70
2023-03-02T10:26:41.581Z,41.80
2023-03-02T10:27:51.512Z,42.10
2023-03-02T10:29:07.882Z,42.10
2023-03-02T10:30:25.786Z,41.40
2023-03-02T10:31:33.184Z,42.30
2023-03-02T10:32:43.540Z,41.90
2023-03-02T10:33:47.238Z,42.40
2023-03-02T10:35:03.035Z,42.50
2023-03-02T10:36:18.231Z,42.50
2023-03-02T10:37:26.211Z,42.20
2023-03-02T10:38:29.959Z,42.40
2023-03-02T10:39:33.898Z,42.00
2023-03-02T10:40:44.534Z,42.00
2023-03-02T10:41:52.890Z,41.90
2023-03-02T10:42:57.996Z,41.90
2023-03-02T10:44:07.207Z,41.70
2023-03-02T10:45:24.594Z,42.60
2023-03-02T10:46:27.349Z,42.10
2023-03-02T10:47:31.427Z,41.70
2023-03-02T10:48:49.331Z,41.90
2023-03-02T10:49:56.014Z,42.10
2023-03-02T10:51:01.420Z,43.00
2023-03-02T10:52:07.644Z,42.90
2023-03-02T10:53:19.667Z,41.70
2023-03-02T10:54:22.406Z,41.60
2023-03-02T10:55:26.492Z,41.50
2023-03-02T10:56:30.283Z,42.00
2023-03-02T10:57:39.515Z,41.70
2023-03-02T10:58:43.652Z,42.20
2023-03-02T10:59:50.197Z,42.00
2023-03-02T11:01:03.018Z,43.00
2023-03-02T11:02:19.262Z,42.90
2023-03-02T11:03:24.631Z,43.00
2023-03-02T11:04:27.443Z,42.90
2023-03-02T11:05:34.897Z,43.10
2023-03-02T11:06:37.685Z,42.90
2023-03-02T11:07:41.625Z,42.50
2023-03-02T11:08:45.651Z,42.90
2023-03-02T11:10:01.896Z,42.70
2023-03-02T11:11:06.575Z,43.30
2023-03-02T11:12:16.316Z,43.10
2023-03-02T11:13:26.719Z,43.00
2023-03-02T11:14:30.553Z,43.20
2023-03-02T11:15:47.641Z,43.60
2023-03-02T11:16:53.176Z,43.40
2023-03-02T11:18:02.919Z,42.80
2023-03-02T11:19:15.246Z,43.60
2023-03-02T11:20:24.542Z,42.80
2023-03-02T11:21:36.131Z,43.10
2023-03-02T11:22:49.048Z,43.40
2023-03-02T11:24:03.486Z,44.00
2023-03-02T11:25:16.489Z,44.40
2023-03-02T11:26:25.881Z,43.50
2023-03-02T11:27:33.312Z,43.40
2023-03-02T11:28:48.552Z,43.30
2023-03-02T11:29:57.587Z,43.70
2023-03-02T11:31:05.824Z,44.10
2023-03-02T11:32:17.284Z,43.90
2023-03-02T11:33:26.100Z,43.60
2023-03-02T11:34:35.863Z,43.70
2023-03-02T11:35:45.897Z,43.90
2023-03-02T11:37:03.601Z,44.10
2023-03-02T11:38:17.893Z,44.30
2023-03-02T11:39:30.211Z,44.10
2023-03-02T11:40:42.665Z,45.10
2023-03-02T11:41:46.632Z,44.00
2023-03-02T11:42:50.804Z,44.30
2023-03-02T11:43:55.844Z,43.90
2023-03-02T11:45:05.170Z,44.00
2023-03-02T11:46:25.897Z,44.00
2023-03-02T11:47:31.893Z,43.80
2023-03-02T11:48:41.102Z,44.60
2023-03-02T11:49:50.888Z,44.60
2023-03-02T11:50:59.480Z,44.50
2023-03-02T11:52:02.556Z,44.60
2023-03-02T11:53:13.158Z,44.80
2023-03-02T11:54:30.839Z,44.70
2023-03-02T11:55:44.168Z,43.50
2023-03-02T11:56:48.000Z,43.30
2023-03-02T11:57:54.376Z,43.20
2023-03-02T11:59:01.376Z,43.80
2023-03-02T12:00:13.130Z,43.70
2023-03-02T12:01:23.776Z,43.80
2023-03-02T12:02:28.301Z,44.00
2023-03-02T12:03:42.097Z,44.10
2023-03-02T12:04:46.164Z,44.10
2023-03-02T12:06:06.075Z,44.60
2023-03-02T12:07:24.086Z,44.20
2023-03-02T12:08:42.298Z,44.80
2023-03-02T12:09:46.366Z,44.90
2023-03-02T12:11:00.707Z,44.40
2023-03-02T12:12:42.186Z,44.90
2023-03-02T12:13:47.769Z,44.90
2023-03-02T12:14:52.468Z,44.80
2023-03-02T12:15:57.266Z,44.70
2023-03-02T12:17:23.516Z,44.50
2023-03-02T12:18:45.867Z,44.30
2023-03-02T12:19:51.283Z,44.60
2023-03-02T12:21:06.156Z,44.40
2023-03-02T12:22:13.727Z,44.70
2023-03-02T12:23:26.178Z,44.00
2023-03-02T12:24:32.635Z,44.10
2023-03-02T12:25:49.703Z,44.20
2023-03-02T12:27:06.106Z,44.50
2023-03-02T12:28:29.524Z,44.20
2023-03-02T12:29:42.844Z,44.40
2023-03-02T12:30:57.291Z,44.40
2023-03-02T12:32:23.044Z,44.30
2023-03-02T12:33:35.837Z,44.60
2023-03-02T12:34:43.022Z,44.50
2023-03-02T12:35:47.721Z,44.40
2023-03-02T12:36:54.934Z,44.40
2023-03-02T12:38:01.966Z,44.60
2023-03-02T12:39:22.420Z,44.30
2023-03-02T12:40:41.669Z,44.10
2023-03-02T12:42:09.763Z,44.30
2023-03-02T12:43:28.794Z,44.20
2023-03-02T12:44:49.471Z,44.40
2023-03-02T12:46:30.340Z,44.90
2023-03-02T12:47:36.067Z,44.80
2023-03-02T12:49:03.269Z,44.40
2023-03-02T12:50:17.464Z,44.70
2023-03-02T12:51:24.549Z,44.80
2023-03-02T12:52:32.155Z,45.00
2023-03-02T12:53:37.533Z,45.30
2023-03-02T12:54:41.288Z,45.40
2023-03-02T12:55:45.125Z,45.40
2023-03-02T12:56:49.229Z,45.60
2023-03-02T12:57:55.048Z,45.70
2023-03-02T12:58:59.383Z,45.70
2023-03-02T13:00:06.157Z,45.90
2023-03-02T13:01:22.602Z,46.30
2023-03-02T13:02:29.826Z,46.30
2023-03-02T13:03:35.058Z,46.20
2023-03-02T13:04:37.763Z,46.50
2023-03-02T13:05:42.359Z,46.70
2023-03-02T13:06:45.226Z,46.60
2023-03-02T13:07:59.011Z,46.80
2023-03-02T13:09:01.925Z,46.70
2023-03-02T13:10:16.276Z,47.20
2023-03-02T13:11:28.284Z,46.90
2023-03-02T13:12:31.349Z,46.60
2023-03-02T13:13:41.681Z,46.60
2023-03-02T13:14:52.260Z,46.20
2023-03-02T13:15:59.223Z,46.50
2023-03-02T13:17:03.322Z,46.90
2023-03-02T13:18:07.496Z,47.20
2023-03-02T13:19:17.128Z,47.10
2023-03-02T13:20:22.178Z,47.20
2023-03-02T13:21:33.708Z,47.60
2023-03-02T13:22:39.789Z,47.70
2023-03-02T13:23:48.439Z,48.00
2023-03-02T13:24:59.129Z,47.80
2023-03-02T13:26:05.307Z,47.60
2023-03-02T13:27:17.401Z,48.00
2023-03-02T13:28:28.769Z,47.90
2023-03-02T13:29:32.053Z,47.70
2023-03-02T13:30:43.598Z,47.20
2023-03-02T13:31:47.363Z,47.50
2023-03-02T13:32:54.809Z,47.30
2023-03-02T13:33:58.551Z,47.50
2023-03-02T13:35:04.951Z,47.80
2023-03-02T13:36:09.724Z,47.60
2023-03-02T13:37:36.321Z,47.50
2023-03-02T13:38:40.211Z,47.60
2023-03-02T13:39:43.099Z,47.30
2023-03-02T13:40:49.573Z,47.30
2023-03-02T13:41:58.806Z,47.40
2023-03-02T13:43:08.701Z,47.70
2023-03-02T13:44:21.461Z,47.60
2023-03-02T13:45:27.099Z,48.00
2023-03-02T13:46:36.775Z,48.40
2023-03-02T13:47:43.860Z,48.00
2023-03-02T13:49:09.196Z,48.40
2023-03-02T13:50:23.109Z,48.30
2023-03-02T13:51:29.215Z,48.50
2023-03-02T13:52:32.320Z,48.10
2023-03-02T13:53:38.189Z,48.30
2023-03-02T13:54:45.589Z,48.50
2023-03-02T13:55:50.198Z,48.40
2023-03-02T13:56:54.767Z,48.80
2023-03-02T13:57:58.307Z,48.80
2023-03-02T13:59:02.686Z,48.90
2023-03-02T14:00:11.830Z,48.80
2023-03-02T14:01:15.681Z,49.20
2023-03-02T14:02:24.548Z,49.60
2023-03-02T14:03:32.136Z,49.60
2023-03-02T14:04:35.851Z,49.80
2023-03-02T14:05:40.067Z,49.80
2023-03-02T14:06:44.091Z,50.10
2023-03-02T14:07:47.675Z,50.30
2023-03-02T14:08:51.587Z,50.30
2023-03-02T14:09:56.513Z,50.60
2023-03-02T14:11:03.865Z,50.60
2023-03-02T14:12:07.503Z,51.00
2023-03-02T14:13:16.175Z,51.10
2023-03-02T14:14:24.789Z,51.10
2023-03-02T14:15:27.725Z,51.10
2023-03-02T14:16:34.785Z,51.40
2023-03-02T14:17:38.675Z,51.90